Time;durP1;ratioP1;P1;durP2;ratioP2;P2;SDS_P1;SDS_P2;PMS_P1;PMS_P2;Temp;Humidity;BMP_temperature;BMP_pressure;BME280_temperature;BME280_humidity;BME280_pressure;Samples;Min_cycle;Max_cycle;Signal;HPM_P1;HPM_P2
2022/01/13 00:01:41;;;;;;;30.58;10.98;;;3.80;99.90;;;;;;10236986;28;86523;-49
2022/01/13 00:06:42;;;;;;;31.02;11.02;;;3.80;99.90;;;;;;10215856;28;85049;-48
2022/01/13 00:11:45;;;;;;;30.92;9.80;;;3.70;99.90;;;;;;10208552;28;87027;-52
2022/01/13 00:22:03;;;;;;;30.30;10.07;;;3.70;99.90;;;;;;10217549;28;84230;-50
2022/01/13 00:27:10;;;;;;;25.00;8.88;;;3.80;99.90;;;;;;10225495;28;85056;-55
2022/01/13 00:32:13;;;;;;;27.00;9.60;;;3.80;99.90;;;;;;10249596;28;84196;-51
2022/01/13 00:37:14;;;;;;;24.65;9.13;;;3.70;99.90;;;;;;10249553;28;84876;-49
2022/01/13 00:42:15;;;;;;;25.58;9.57;;;3.70;99.90;;;;;;10249372;28;86686;-52
2022/01/13 00:47:16;;;;;;;27.33;10.77;;;3.70;99.90;;;;;;10285205;22;87152;-46
2022/01/13 00:52:16;;;;;;;33.08;10.25;;;3.70;99.90;;;;;;10248116;28;86051;-45
2022/01/13 00:57:17;;;;;;;27.48;9.48;;;3.70;99.90;;;;;;10265560;28;85139;-46
2022/01/13 01:02:18;;;;;;;31.17;10.13;;;3.70;99.90;;;;;;10287944;28;85015;-46
2022/01/13 01:07:18;;;;;;;31.33;11.00;;;3.70;99.90;;;;;;10286906;28;84186;-44
2022/01/13 01:12:19;;;;;;;31.38;10.35;;;3.60;99.90;;;;;;10286346;28;84973;-44
2022/01/13 01:17:20;;;;;;;29.20;9.93;;;3.60;99.90;;;;;;10273381;28;84734;-44
2022/01/13 01:27:33;;;;;;;31.50;11.93;;;3.80;99.90;;;;;;10287246;28;84811;-44
2022/01/13 01:32:36;;;;;;;30.38;9.93;;;3.70;99.90;;;;;;10286364;28;84098;-46
2022/01/13 01:37:39;;;;;;;30.20;10.63;;;3.80;99.90;;;;;;10287013;28;84404;-46
2022/01/13 01:42:40;;;;;;;34.47;11.77;;;3.80;99.90;;;;;;10287170;28;84112;-46
2022/01/13 01:47:43;;;;;;;31.52;10.95;;;3.90;99.90;;;;;;10283784;28;87239;-45
2022/01/13 01:52:46;;;;;;;35.13;11.32;;;3.90;99.90;;;;;;10287010;28;84924;-46
2022/01/13 01:57:49;;;;;;;35.30;10.68;;;3.90;99.90;;;;;;10284609;28;85059;-46
2022/01/13 02:02:50;;;;;;;30.33;12.10;;;3.90;99.90;;;;;;10301261;28;86921;-46
2022/01/13 02:07:51;;;;;;;35.47;11.20;;;3.80;99.90;;;;;;10285758;28;85107;-49
2022/01/13 02:13:00;;;;;;;28.02;10.85;;;3.80;99.90;;;;;;10285866;28;84104;-48
2022/01/13 02:18:04;;;;;;;35.30;11.18;;;3.70;99.90;;;;;;10285251;28;84118;-47
2022/01/13 02:23:04;;;;;;;27.90;9.75;;;3.70;99.90;;;;;;10285540;28;86848;-45
2022/01/13 02:28:05;;;;;;;37.55;12.45;;;3.70;99.90;;;;;;10263292;28;89965;-45
2022/01/13 02:33:06;;;;;;;32.28;9.75;;;3.80;99.90;;;;;;10273533;28;87102;-47
2022/01/13 02:38:11;;;;;;;33.55;10.40;;;3.70;99.90;;;;;;10277203;28;91336;-46
2022/01/13 02:43:12;;;;;;;31.02;9.60;;;3.70;99.90;;;;;;10301422;28;85179;-46
2022/01/13 02:48:30;;;;;;;32.45;10.65;;;3.70;99.90;;;;;;10284536;28;84197;-44
2022/01/13 02:53:31;;;;;;;37.15;9.90;;;3.80;99.90;;;;;;10285613;28;84954;-45
2022/01/13 02:58:33;;;;;;;32.83;9.63;;;3.60;99.90;;;;;;10283552;28;84270;-44
2022/01/13 03:03:35;;;;;;;39.85;10.20;;;3.60;99.90;;;;;;10283440;28;86330;-46
2022/01/13 03:08:37;;;;;;;35.53;9.45;;;3.60;99.90;;;;;;10282499;28;86141;-46
2022/01/13 03:13:38;;;;;;;35.90;11.00;;;3.40;99.90;;;;;;10285207;28;84947;-44
2022/01/13 03:18:39;;;;;;;33.53;10.70;;;3.60;99.90;;;;;;10284429;28;84166;-45
2022/01/13 03:23:40;;;;;;;33.25;11.85;;;3.60;99.90;;;;;;10283771;28;84420;-46
2022/01/13 03:34:17;;;;;;;41.72;11.50;;;3.70;99.90;;;;;;10216570;28;84118;-45
2022/01/13 03:39:18;;;;;;;37.72;11.23;;;3.70;99.90;;;;;;10289246;28;84991;-45
2022/01/13 03:44:27;;;;;;;42.78;11.02;;;3.70;99.90;;;;;;10290510;28;85002;-44
2022/01/13 03:49:29;;;;;;;37.13;11.82;;;3.60;99.90;;;;;;10290709;28;85295;-48
2022/01/13 03:54:32;;;;;;;36.47;11.43;;;3.70;99.90;;;;;;10290463;28;84111;-42
2022/01/13 03:59:53;;;;;;;35.00;10.73;;;3.70;99.90;;;;;;10289027;28;84949;-46
2022/01/13 04:04:54;;;;;;;45.97;11.60;;;3.60;99.90;;;;;;10288698;28;86549;-44
2022/01/13 04:09:54;;;;;;;38.70;10.40;;;3.60;99.90;;;;;;10289857;28;84021;-46
2022/01/13 04:14:59;;;;;;;37.38;11.55;;;3.50;99.90;;;;;;10288193;28;85990;-44
2022/01/13 04:19:59;;;;;;;37.80;10.80;;;3.50;99.90;;;;;;10287775;28;85785;-44
2022/01/13 04:25:00;;;;;;;40.35;11.52;;;3.50;99.90;;;;;;10288931;28;90524;-44
2022/01/13 04:30:23;;;;;;;39.42;10.98;;;3.50;99.90;;;;;;10289057;28;84914;-45
2022/01/13 04:35:21;;;;;;;42.72;12.93;;;3.50;99.90;;;;;;10288578;28;84956;-46
2022/01/13 04:40:22;;;;;;;39.85;11.40;;;3.50;99.90;;;;;;10288050;28;84900;-45
2022/01/13 04:45:25;;;;;;;45.22;13.23;;;3.50;99.90;;;;;;10289256;28;84226;-45
2022/01/13 04:50:25;;;;;;;42.80;12.35;;;3.50;99.90;;;;;;10267919;28;84907;-44
2022/01/13 04:55:30;;;;;;;49.33;13.27;;;3.50;99.90;;;;;;10247500;28;84082;-45
2022/01/13 05:00:32;;;;;;;47.78;13.50;;;3.50;99.90;;;;;;10245777;28;84192;-47
2022/01/13 05:05:32;;;;;;;45.03;14.10;;;3.60;99.90;;;;;;10243099;28;86954;-48
2022/01/13 05:10:33;;;;;;;45.90;13.40;;;3.70;99.90;;;;;;10245888;28;84914;-48
2022/01/13 05:15:35;;;;;;;54.22;14.10;;;3.70;99.90;;;;;;10259650;28;84821;-46
2022/01/13 05:20:47;;;;;;;43.65;12.57;;;3.60;99.90;;;;;;10246397;28;85600;-45
2022/01/13 05:25:48;;;;;;;54.53;15.00;;;3.60;99.90;;;;;;10225592;28;85558;-45
2022/01/13 05:30:50;;;;;;;44.72;13.05;;;3.60;99.90;;;;;;10242650;28;87111;-44
2022/01/13 05:35:50;;;;;;;44.78;10.90;;;3.50;99.90;;;;;;10225655;28;85238;-47
2022/01/13 05:40:51;;;;;;;41.67;12.95;;;3.40;99.90;;;;;;10225021;28;86355;-44
2022/01/13 05:45:52;;;;;;;41.72;11.95;;;3.40;99.90;;;;;;10224964;28;84189;-44
2022/01/13 05:50:53;;;;;;;48.72;10.80;;;3.60;99.90;;;;;;10225102;28;84910;-48
2022/01/13 05:55:53;;;;;;;32.67;10.98;;;3.70;99.90;;;;;;10225046;28;84112;-45
2022/01/13 06:00:54;;;;;;;37.08;11.27;;;3.70;99.90;;;;;;10227141;28;84980;-46
2022/01/13 06:05:55;;;;;;;40.22;12.30;;;3.70;99.90;;;;;;10224045;28;84928;-44
2022/01/13 06:10:55;;;;;;;37.28;10.45;;;3.70;99.90;;;;;;10227191;28;84185;-45
2022/01/13 06:15:56;;;;;;;42.65;11.95;;;3.80;99.90;;;;;;10239253;28;85079;-47
2022/01/13 06:20:56;;;;;;;41.53;12.73;;;3.70;99.90;;;;;;10239452;28;91714;-46
2022/01/13 06:25:57;;;;;;;42.17;10.85;;;3.70;99.90;;;;;;10244625;28;84853;-45
2022/01/13 06:30:58;;;;;;;33.28;11.43;;;3.60;99.90;;;;;;10239942;28;87333;-50
2022/01/13 06:35:59;;;;;;;46.10;11.93;;;3.60;99.90;;;;;;10244187;28;84983;-44
2022/01/13 06:41:01;;;;;;;42.90;11.52;;;3.60;99.90;;;;;;10244264;28;84305;-45
2022/01/13 06:46:02;;;;;;;46.55;12.80;;;3.60;99.90;;;;;;10265128;22;85055;-55
2022/01/13 06:51:02;;;;;;;43.03;12.43;;;3.50;99.90;;;;;;10242580;28;84270;-56
2022/01/13 06:56:04;;;;;;;46.33;13.00;;;3.60;99.90;;;;;;10243013;28;84256;-55
2022/01/13 07:01:05;;;;;;;39.67;11.63;;;3.60;99.90;;;;;;10244450;28;84101;-56
2022/01/13 07:06:06;;;;;;;45.45;12.35;;;3.50;99.90;;;;;;10238309;28;84714;-57
2022/01/13 07:11:06;;;;;;;46.30;12.40;;;3.60;99.90;;;;;;10265860;28;84852;-56
2022/01/13 07:16:07;;;;;;;39.03;12.15;;;3.50;99.90;;;;;;10245265;28;84160;-54
2022/01/13 07:21:09;;;;;;;47.92;13.75;;;3.60;99.90;;;;;;10261624;28;84763;-55
2022/01/13 07:26:10;;;;;;;44.60;12.82;;;3.50;99.90;;;;;;10237931;28;87191;-54
2022/01/13 07:31:14;;;;;;;38.17;11.02;;;3.60;99.90;;;;;;10232804;28;84727;-56
2022/01/13 07:36:15;;;;;;;43.55;12.50;;;3.50;99.90;;;;;;10219357;28;84861;-51
2022/01/13 07:41:15;;;;;;;46.42;13.32;;;3.60;99.90;;;;;;10223657;28;84227;-56
2022/01/13 07:46:16;;;;;;;44.85;12.13;;;3.50;99.90;;;;;;10250195;28;85233;-52
2022/01/13 07:51:17;;;;;;;59.53;12.23;;;3.40;99.90;;;;;;10251476;28;85028;-54
2022/01/13 07:56:18;;;;;;;34.78;10.90;;;3.50;99.90;;;;;;10233990;28;85418;-57
2022/01/13 08:01:18;;;;;;;37.42;12.43;;;3.40;99.90;;;;;;10263732;28;85866;-57
2022/01/13 08:06:19;;;;;;;37.83;10.82;;;3.40;99.90;;;;;;10248152;28;84742;-54
2022/01/13 08:11:19;;;;;;;50.25;11.80;;;3.40;99.90;;;;;;10248866;28;84018;-54
2022/01/13 08:16:20;;;;;;;42.15;11.75;;;3.40;99.90;;;;;;10248345;28;84133;-57
2022/01/13 08:21:21;;;;;;;38.45;12.20;;;3.40;99.90;;;;;;10242999;28;85602;-54
2022/01/13 08:26:22;;;;;;;60.15;15.15;;;3.40;99.90;;;;;;10246475;28;84577;-57
2022/01/13 08:31:23;;;;;;;47.08;13.05;;;3.40;99.90;;;;;;10247324;28;84568;-58
2022/01/13 08:36:23;;;;;;;43.92;11.48;;;3.40;99.90;;;;;;10247597;28;85005;-59
2022/01/13 08:41:24;;;;;;;41.03;12.45;;;3.40;99.90;;;;;;10251957;28;84255;-55
2022/01/13 08:46:26;;;;;;;48.15;12.10;;;3.50;99.90;;;;;;10251099;28;86122;-55
2022/01/13 08:51:26;;;;;;;37.33;11.27;;;3.50;99.90;;;;;;10251664;28;84789;-53
2022/01/13 08:56:28;;;;;;;44.50;12.55;;;3.60;99.90;;;;;;10250684;28;85557;-54
2022/01/13 09:01:30;;;;;;;36.08;11.75;;;3.60;99.90;;;;;;10250572;28;85035;-57
2022/01/13 09:06:31;;;;;;;40.58;10.57;;;3.60;99.90;;;;;;10249634;28;85653;-51
2022/01/13 09:11:31;;;;;;;41.63;11.93;;;3.60;99.90;;;;;;10251380;28;84361;-56
2022/01/13 09:16:41;;;;;;;40.97;10.93;;;3.50;99.90;;;;;;10250145;28;84900;-57
2022/01/13 09:21:44;;;;;;;47.20;10.75;;;3.50;99.90;;;;;;10250054;28;84816;-57
2022/01/13 09:26:45;;;;;;;34.85;10.80;;;3.70;99.90;;;;;;10249478;28;85004;-54
2022/01/13 09:31:46;;;;;;;46.97;13.20;;;3.60;99.90;;;;;;10247955;28;85897;-54
2022/01/13 09:36:47;;;;;;;47.30;12.27;;;3.60;99.90;;;;;;10246324;28;84942;-51
2022/01/13 09:41:50;;;;;;;47.72;13.75;;;3.60;99.90;;;;;;10246571;28;84737;-56
2022/01/13 09:46:51;;;;;;;49.17;12.90;;;3.60;99.90;;;;;;10244516;28;85003;-56
2022/01/13 09:51:52;;;;;;;47.08;10.60;;;3.60;99.90;;;;;;10246172;28;84816;-57
2022/01/13 09:56:52;;;;;;;47.10;14.18;;;3.60;99.90;;;;;;10245011;28;84881;-54
2022/01/13 10:01:53;;;;;;;44.83;12.07;;;3.60;99.90;;;;;;10245371;28;84105;-57
2022/01/13 10:06:53;;;;;;;39.38;10.60;;;3.60;99.90;;;;;;10245104;28;85012;-57
2022/01/13 10:11:56;;;;;;;49.47;13.55;;;3.70;99.90;;;;;;10245244;28;84913;-56
2022/01/13 10:17:03;;;;;;;36.88;10.05;;;3.60;99.90;;;;;;10245511;28;84948;-58
2022/01/13 10:22:06;;;;;;;35.88;10.80;;;3.70;99.90;;;;;;10243481;28;84955;-57
2022/01/13 10:27:12;;;;;;;37.55;12.57;;;3.80;99.90;;;;;;10244286;28;84884;-57
2022/01/13 10:32:22;;;;;;;32.42;11.27;;;3.70;99.90;;;;;;10244704;28;84144;-56
2022/01/13 10:37:32;;;;;;;33.90;10.55;;;3.50;99.90;;;;;;10245480;28;84832;-54
2022/01/13 10:47:34;;;;;;;31.98;9.27;;;3.60;99.90;;;;;;10250596;28;84824;-56
2022/01/13 10:52:36;;;;;;;34.83;9.35;;;3.80;99.90;;;;;;10252739;28;84859;-57
2022/01/13 10:57:38;;;;;;;31.63;10.10;;;3.80;99.90;;;;;;10251581;28;84152;-58
2022/01/13 11:02:39;;;;;;;36.55;9.80;;;3.80;99.90;;;;;;10251392;28;84071;-59
2022/01/13 11:07:41;;;;;;;37.03;9.55;;;3.80;99.90;;;;;;10251010;28;84911;-56
2022/01/13 11:12:44;;;;;;;37.55;10.95;;;3.70;99.90;;;;;;10251013;28;84888;-56
2022/01/13 11:17:45;;;;;;;35.70;10.73;;;3.70;99.90;;;;;;10250038;28;84117;-55
2022/01/13 11:22:48;;;;;;;31.25;10.27;;;3.70;99.90;;;;;;10248763;28;87090;-56
2022/01/13 11:27:49;;;;;;;37.75;9.35;;;3.70;99.90;;;;;;10248790;28;84056;-54
2022/01/13 11:32:50;;;;;;;43.30;11.43;;;3.90;99.90;;;;;;10250099;28;84731;-55
2022/01/13 11:37:52;;;;;;;38.00;10.30;;;3.90;99.90;;;;;;10249883;28;83981;-53
2022/01/13 11:42:53;;;;;;;45.90;12.75;;;3.80;99.90;;;;;;10250317;28;85141;-54
2022/01/13 11:48:13;;;;;;;47.97;12.45;;;3.90;99.90;;;;;;10248807;28;84798;-55
2022/01/13 11:53:29;;;;;;;28.55;9.23;;;3.90;99.90;;;;;;10251133;28;85097;-57
2022/01/13 11:58:38;;;;;;;36.83;10.15;;;4.00;99.90;;;;;;10251127;28;84274;-58
2022/01/13 12:03:41;;;;;;;36.67;11.27;;;3.90;99.90;;;;;;10250622;28;85063;-56
2022/01/13 12:08:51;;;;;;;28.80;8.57;;;3.80;99.90;;;;;;10250519;28;85153;-52
2022/01/13 12:13:52;;;;;;;35.88;10.23;;;3.80;99.90;;;;;;10249676;28;85398;-53
2022/01/13 12:19:04;;;;;;;38.58;10.60;;;3.70;99.90;;;;;;10250482;28;84160;-57
2022/01/13 12:24:06;;;;;;;44.70;10.85;;;3.80;99.90;;;;;;10249932;28;84199;-56
2022/01/13 12:29:12;;;;;;;40.75;11.20;;;3.90;99.90;;;;;;10247013;28;87148;-54
2022/01/13 12:34:39;;;;;;;44.30;10.85;;;4.00;99.90;;;;;;10250729;28;84339;-55
2022/01/13 12:40:19;;;;;;;37.47;11.43;;;3.90;99.90;;;;;;10249567;28;84947;-57
2022/01/13 12:50:46;;;;;;;35.08;11.75;;;4.00;99.90;;;;;;10247482;28;84067;-47
2022/01/13 12:55:59;;;;;;;38.90;12.82;;;4.00;99.90;;;;;;10250299;28;84957;-47
2022/01/13 13:01:09;;;;;;;43.45;11.70;;;3.90;99.90;;;;;;10248626;28;84363;-46
2022/01/13 13:06:16;;;;;;;43.78;12.20;;;3.90;99.90;;;;;;10248835;28;85006;-48
2022/01/13 13:11:16;;;;;;;29.27;9.20;;;3.90;99.90;;;;;;10249172;28;85776;-46
2022/01/13 13:16:17;;;;;;;34.22;9.15;;;3.90;99.90;;;;;;10250870;28;84491;-47
2022/01/13 13:21:19;;;;;;;38.25;9.25;;;4.00;99.90;;;;;;10249912;28;84123;-46
2022/01/13 13:26:22;;;;;;;34.97;10.90;;;4.10;99.90;;;;;;10246921;28;86023;-47
2022/01/13 13:31:26;;;;;;;37.28;8.85;;;4.20;99.90;;;;;;10248728;28;84797;-46
2022/01/13 13:36:35;;;;;;;44.33;12.93;;;4.30;99.90;;;;;;10247689;28;85074;-46
2022/01/13 13:41:45;;;;;;;46.28;13.75;;;4.40;99.90;;;;;;10249508;28;84080;-47
2022/01/13 13:46:53;;;;;;;50.63;14.48;;;4.50;99.90;;;;;;10250011;28;84190;-43
2022/01/13 13:52:05;;;;;;;57.20;15.80;;;4.30;99.90;;;;;;10247617;28;85788;-47
2022/01/13 13:57:08;;;;;;;50.33;13.65;;;4.10;99.90;;;;;;10248586;28;84941;-46
2022/01/13 14:02:30;;;;;;;57.78;13.65;;;4.30;99.90;;;;;;10247119;28;84673;-47
2022/01/13 14:07:35;;;;;;;50.53;14.43;;;4.40;99.90;;;;;;10229651;28;86729;-48
2022/01/13 14:12:41;;;;;;;59.80;15.30;;;4.40;99.90;;;;;;10246676;28;84926;-46
2022/01/13 14:17:43;;;;;;;54.22;15.68;;;4.10;99.90;;;;;;10245947;28;85015;-48
2022/01/13 14:22:44;;;;;;;55.60;15.43;;;4.00;99.90;;;;;;10246571;28;84009;-50
2022/01/13 14:28:00;;;;;;;47.17;13.57;;;4.00;99.90;;;;;;10243845;28;84969;-47
2022/01/13 14:33:15;;;;;;;50.70;14.93;;;4.10;99.90;;;;;;10248064;28;84716;-48
2022/01/13 14:38:15;;;;;;;42.63;12.27;;;4.10;99.90;;;;;;10246439;28;84139;-46
2022/01/13 14:43:21;;;;;;;37.38;12.05;;;4.20;99.90;;;;;;10245435;28;84041;-49
2022/01/13 14:48:21;;;;;;;43.75;11.48;;;4.20;99.90;;;;;;10242699;28;86059;-48
2022/01/13 14:53:22;;;;;;;40.10;11.85;;;4.10;99.90;;;;;;10245037;28;84942;-47
2022/01/13 14:58:22;;;;;;;44.28;12.90;;;4.10;99.90;;;;;;10229458;28;86286;-50
2022/01/13 15:03:23;;;;;;;36.75;11.05;;;4.10;99.90;;;;;;10244667;28;84822;-47
2022/01/13 15:08:25;;;;;;;39.28;11.52;;;4.10;99.90;;;;;;10244384;28;84029;-46
2022/01/13 15:13:26;;;;;;;42.50;12.27;;;4.10;99.90;;;;;;10244452;28;84017;-49
2022/01/13 15:18:28;;;;;;;47.63;12.57;;;4.10;99.90;;;;;;10243820;28;84500;-50
2022/01/13 15:23:30;;;;;;;37.90;12.88;;;4.10;99.90;;;;;;10245106;28;84799;-50
2022/01/13 15:28:31;;;;;;;46.30;12.32;;;4.20;99.90;;;;;;10248897;28;84281;-49
2022/01/13 15:33:32;;;;;;;42.55;11.48;;;4.10;99.90;;;;;;10250161;28;85333;-46
2022/01/13 15:38:35;;;;;;;32.17;9.05;;;4.20;99.90;;;;;;10250404;28;84746;-49
2022/01/13 15:43:35;;;;;;;24.77;8.07;;;4.20;99.90;;;;;;10251038;28;84010;-49
2022/01/13 15:48:36;;;;;;;25.30;8.23;;;3.90;99.90;;;;;;10248727;28;84944;-48
2022/01/13 15:53:37;;;;;;;30.15;8.18;;;3.70;99.90;;;;;;10252096;28;84138;-49
2022/01/13 15:58:37;;;;;;;17.73;7.15;;;3.70;99.90;;;;;;10251735;28;84407;-49
2022/01/13 16:03:38;;;;;;;25.25;7.53;;;3.60;99.90;;;;;;10251283;28;84135;-48
2022/01/13 16:08:39;;;;;;;27.20;7.10;;;3.70;99.90;;;;;;10250169;28;84119;-46
2022/01/13 16:13:43;;;;;;;24.98;8.43;;;3.80;99.90;;;;;;10249840;28;84065;-47
2022/01/13 16:18:45;;;;;;;32.38;9.02;;;3.70;99.90;;;;;;10248184;28;87142;-50
2022/01/13 16:23:46;;;;;;;25.02;8.55;;;3.80;99.90;;;;;;10252126;28;85030;-48
2022/01/13 16:28:46;;;;;;;24.42;6.90;;;3.70;99.90;;;;;;10249880;28;84858;-49
2022/01/13 16:33:48;;;;;;;29.50;9.48;;;3.80;99.90;;;;;;10250189;28;85061;-48
2022/01/13 16:38:49;;;;;;;20.50;6.70;;;3.70;99.90;;;;;;10247847;28;84110;-47
2022/01/13 16:43:50;;;;;;;33.33;8.38;;;3.70;99.90;;;;;;10249961;28;85126;-46
2022/01/13 16:48:50;;;;;;;26.90;8.10;;;3.60;99.90;;;;;;10246622;28;84988;-50
2022/01/13 16:53:51;;;;;;;29.73;8.85;;;3.60;99.90;;;;;;10250392;28;84197;-46
2022/01/13 16:58:54;;;;;;;26.00;8.80;;;3.50;99.90;;;;;;10249614;28;84881;-46
2022/01/13 17:03:54;;;;;;;30.38;8.88;;;3.50;99.90;;;;;;10249296;28;84600;-48
2022/01/13 17:08:55;;;;;;;25.52;8.32;;;3.60;99.90;;;;;;10249779;28;84367;-47
2022/01/13 17:13:56;;;;;;;25.75;8.80;;;3.60;99.90;;;;;;10247669;28;84332;-50
2022/01/13 17:18:56;;;;;;;27.33;8.02;;;3.60;99.90;;;;;;10249042;28;84765;-52
2022/01/13 17:23:57;;;;;;;37.50;9.75;;;3.50;99.90;;;;;;10251048;28;84115;-49
2022/01/13 17:28:59;;;;;;;25.50;7.95;;;3.60;99.90;;;;;;10245997;28;84229;-47
2022/01/13 17:34:01;;;;;;;29.08;8.60;;;3.60;99.90;;;;;;10244876;28;84980;-47
2022/01/13 17:39:04;;;;;;;25.75;9.35;;;3.60;99.90;;;;;;10246388;28;85001;-50
2022/01/13 17:44:05;;;;;;;29.80;7.35;;;3.60;99.90;;;;;;10246101;28;84087;-51
2022/01/13 17:49:06;;;;;;;24.27;7.05;;;3.60;99.90;;;;;;10241687;28;84188;-50
2022/01/13 17:54:07;;;;;;;22.27;6.80;;;3.60;99.90;;;;;;10243942;28;84175;-46
2022/01/13 17:59:07;;;;;;;23.88;8.20;;;3.60;99.90;;;;;;10244262;28;85603;-47
2022/01/13 18:04:08;;;;;;;25.10;7.05;;;3.70;99.90;;;;;;10243411;28;85742;-50
2022/01/13 18:09:11;;;;;;;20.33;7.22;;;3.70;99.90;;;;;;10243414;28;84271;-51
2022/01/13 18:14:12;;;;;;;21.60;7.03;;;3.70;99.90;;;;;;10244434;28;84978;-48
2022/01/13 18:19:13;;;;;;;21.38;7.38;;;3.60;99.90;;;;;;10242322;28;87516;-51
2022/01/13 18:24:13;;;;;;;25.77;7.38;;;3.60;99.90;;;;;;10245372;28;85158;-48
2022/01/13 18:29:14;;;;;;;25.40;7.35;;;3.70;99.90;;;;;;10246904;28;90386;-52
2022/01/13 18:34:15;;;;;;;25.00;8.27;;;3.60;99.90;;;;;;10256946;28;84962;-49
2022/01/13 18:39:16;;;;;;;24.35;7.63;;;3.50;99.90;;;;;;10233632;28;85082;-48
2022/01/13 18:44:21;;;;;;;19.77;6.80;;;3.50;99.90;;;;;;10206005;28;84918;-47
2022/01/13 18:49:22;;;;;;;19.90;7.07;;;3.50;99.90;;;;;;10287561;22;85019;-51
2022/01/13 18:54:23;;;;;;;19.33;6.25;;;3.50;99.90;;;;;;10284401;28;84921;-49
2022/01/13 18:59:27;;;;;;;21.25;7.47;;;3.40;99.90;;;;;;10279561;28;84250;-55
2022/01/13 19:04:28;;;;;;;18.85;7.28;;;3.60;99.90;;;;;;10297427;28;86407;-54
2022/01/13 19:09:28;;;;;;;25.63;7.63;;;3.70;99.90;;;;;;10296986;28;84831;-53
2022/01/13 19:14:31;;;;;;;16.05;6.35;;;3.60;99.90;;;;;;10298243;28;86322;-47
2022/01/13 19:19:34;;;;;;;17.60;6.65;;;3.60;99.90;;;;;;10290839;28;84892;-51
2022/01/13 19:24:35;;;;;;;21.15;7.40;;;3.50;99.90;;;;;;10299408;28;84295;-50
2022/01/13 19:29:35;;;;;;;16.50;5.85;;;3.60;99.90;;;;;;10324434;28;84120;-49
2022/01/13 19:34:36;;;;;;;19.52;6.25;;;3.60;99.90;;;;;;10306374;28;84916;-51
2022/01/13 19:39:37;;;;;;;37.42;12.45;;;3.60;99.90;;;;;;10323064;28;85088;-55
2022/01/13 19:44:37;;;;;;;25.20;9.10;;;3.50;99.90;;;;;;10334297;28;84158;-54
2022/01/13 19:49:38;;;;;;;21.25;7.47;;;3.40;99.90;;;;;;10332610;28;84975;-51
2022/01/13 19:54:39;;;;;;;21.00;7.63;;;3.30;99.90;;;;;;10333259;28;84199;-49
2022/01/13 19:59:40;;;;;;;19.92;6.28;;;3.40;99.90;;;;;;10331886;28;85030;-52
2022/01/13 20:04:40;;;;;;;25.10;8.60;;;3.40;99.90;;;;;;10332358;28;84151;-49
2022/01/13 20:09:42;;;;;;;22.52;7.03;;;3.40;99.90;;;;;;10311677;28;86983;-54
2022/01/13 20:14:48;;;;;;;21.23;6.60;;;3.50;99.90;;;;;;10311213;28;84224;-50
2022/01/13 20:19:49;;;;;;;28.00;8.05;;;3.50;99.90;;;;;;10287486;28;85202;-50
2022/01/13 20:24:50;;;;;;;14.05;6.20;;;3.30;99.90;;;;;;10292188;28;86852;-52
2022/01/13 20:29:51;;;;;;;16.90;6.20;;;3.10;99.90;;;;;;10293295;28;84855;-52
2022/01/13 20:34:52;;;;;;;26.50;8.07;;;3.20;99.90;;;;;;10293980;28;84894;-55
2022/01/13 20:39:52;;;;;;;24.85;7.65;;;3.30;99.90;;;;;;10292916;28;86133;-54
2022/01/13 20:44:53;;;;;;;26.73;8.20;;;3.30;99.90;;;;;;10291684;28;84997;-53
2022/01/13 20:49:54;;;;;;;28.52;7.78;;;3.30;99.90;;;;;;10286336;28;84920;-54
2022/01/13 20:54:55;;;;;;;23.38;7.47;;;3.30;99.90;;;;;;10290961;28;84768;-56
2022/01/13 20:59:55;;;;;;;23.52;6.40;;;3.20;99.90;;;;;;10291276;28;84207;-57
2022/01/13 21:04:57;;;;;;;22.20;7.72;;;3.20;99.90;;;;;;10290945;28;85254;-55
2022/01/13 21:10:00;;;;;;;20.17;6.80;;;3.10;99.90;;;;;;10290206;28;84968;-54
2022/01/13 21:15:00;;;;;;;18.27;5.50;;;3.00;99.90;;;;;;10289261;28;87120;-46
2022/01/13 21:20:01;;;;;;;17.00;5.82;;;3.00;99.90;;;;;;10287445;28;84917;-53
2022/01/13 21:25:06;;;;;;;22.33;6.03;;;3.00;99.90;;;;;;10288058;28;84138;-50
2022/01/13 21:30:11;;;;;;;16.77;5.90;;;2.90;99.90;;;;;;10287394;28;85002;-50
2022/01/13 21:35:14;;;;;;;19.48;5.60;;;3.00;99.90;;;;;;10286962;28;84873;-51
2022/01/13 21:40:17;;;;;;;16.77;6.35;;;3.00;99.90;;;;;;10290436;28;85987;-51
2022/01/13 21:45:18;;;;;;;19.70;6.35;;;3.10;99.90;;;;;;10288931;28;86774;-50
2022/01/13 21:50:19;;;;;;;20.50;6.22;;;3.10;99.90;;;;;;10302707;28;84992;-52
2022/01/13 21:55:21;;;;;;;21.25;6.82;;;3.20;99.90;;;;;;10285005;28;84992;-55
2022/01/13 22:00:22;;;;;;;23.63;7.05;;;3.00;99.90;;;;;;10286092;28;84898;-50
2022/01/13 22:05:26;;;;;;;22.27;6.70;;;2.90;99.90;;;;;;10285555;28;86264;-51
2022/01/13 22:10:29;;;;;;;12.95;4.75;;;3.00;99.90;;;;;;10285758;28;84947;-55
2022/01/13 22:15:30;;;;;;;16.77;6.35;;;2.90;99.90;;;;;;10285797;28;84094;-49
2022/01/13 22:20:31;;;;;;;20.58;6.13;;;2.90;99.90;;;;;;10262270;28;85988;-53
2022/01/13 22:25:32;;;;;;;12.77;4.90;;;2.90;99.90;;;;;;10257261;28;85438;-53
2022/01/13 22:30:32;;;;;;;19.95;6.45;;;2.90;99.90;;;;;;10245767;28;84043;-51
2022/01/13 22:35:33;;;;;;;19.63;6.03;;;3.00;99.90;;;;;;10257828;28;84985;-50
2022/01/13 22:40:34;;;;;;;16.92;5.80;;;3.00;99.90;;;;;;10259069;28;85162;-48
2022/01/13 22:45:35;;;;;;;14.30;5.38;;;3.00;99.90;;;;;;10258240;28;85081;-55
2022/01/13 22:50:35;;;;;;;16.58;5.55;;;3.00;99.90;;;;;;10256667;28;86479;-53
2022/01/13 22:55:36;;;;;;;13.38;5.35;;;3.00;99.90;;;;;;10258534;28;84083;-49
2022/01/13 23:00:47;;;;;;;16.63;6.97;;;3.00;99.90;;;;;;10257942;28;84933;-50
2022/01/13 23:05:50;;;;;;;13.57;5.30;;;3.00;99.90;;;;;;10258291;28;84887;-55
2022/01/13 23:10:52;;;;;;;16.00;6.15;;;3.10;99.90;;;;;;10256581;28;87256;-51
2022/01/13 23:26:31;;;;;;;13.60;4.97;;;2.90;99.90;;;;;;10257789;28;86655;-50
2022/01/13 23:31:32;;;;;;;12.93;5.38;;;2.90;99.90;;;;;;10257467;28;84867;-53
2022/01/13 23:36:33;;;;;;;14.00;5.07;;;3.00;99.90;;;;;;10256920;28;84881;-51
2022/01/13 23:41:42;;;;;;;14.30;5.68;;;3.00;99.90;;;;;;10272172;28;85029;-58
2022/01/13 23:47:02;;;;;;;12.35;5.00;;;2.90;99.90;;;;;;10249795;28;85025;-46
2022/01/13 23:52:05;;;;;;;17.10;6.45;;;2.90;99.90;;;;;;10250241;28;84096;-52
2022/01/13 23:57:06;;;;;;;17.92;6.32;;;3.00;99.90;;;;;;10264377;28;85332;-51
